createdAt,value
2019-04-07T00:00:06.212Z,0.00
2019-04-07T00:01:06.349Z,0.00
2019-04-07T00:02:06.319Z,0.00
2019-04-07T00:03:06.825Z,0.00
2019-04-07T00:04:06.513Z,0.00
2019-04-07T00:05:13.014Z,0.00
2019-04-07T00:06:07.482Z,0.00
2019-04-07T00:07:06.128Z,0.00
2019-04-07T00:08:06.703Z,0.00
2019-04-07T00:09:06.144Z,0.00
2019-04-07T00:10:06.056Z,0.00
2019-04-07T00:11:06.096Z,0.00
2019-04-07T00:12:06.123Z,0.00
2019-04-07T00:13:06.072Z,0.00
2019-04-07T00:14:06.008Z,0.00
2019-04-07T00:15:06.085Z,0.00
2019-04-07T00:16:06.031Z,0.00
2019-04-07T00:17:05.997Z,0.00
2019-04-07T00:18:06.588Z,0.00
2019-04-07T00:19:06.630Z,0.00
2019-04-07T00:20:07.130Z,0.00
2019-04-07T00:21:06.237Z,0.00
2019-04-07T00:22:05.918Z,0.00
2019-04-07T00:23:05.944Z,0.00
2019-04-07T00:24:05.902Z,0.00
2019-04-07T00:25:05.954Z,0.00
2019-04-07T00:26:06.086Z,0.00
2019-04-07T00:27:05.907Z,0.00
2019-04-07T00:28:05.854Z,0.00
2019-04-07T00:29:05.905Z,0.00
2019-04-07T00:30:06.525Z,0.00
2019-04-07T00:31:05.896Z,0.00
2019-04-07T00:32:05.968Z,0.00
2019-04-07T00:33:06.349Z,0.00
2019-04-07T00:34:05.795Z,0.00
2019-04-07T00:35:05.818Z,0.00
2019-04-07T00:36:05.806Z,0.00
2019-04-07T00:37:05.844Z,0.00
2019-04-07T00:38:05.751Z,0.00
2019-04-07T00:39:05.978Z,0.00
2019-04-07T00:40:05.723Z,0.00
2019-04-07T00:41:05.788Z,0.00
2019-04-07T00:42:05.694Z,0.00
2019-04-07T00:43:05.773Z,0.00
2019-04-07T00:44:06.166Z,0.00
2019-04-07T00:45:06.128Z,0.00
2019-04-07T00:46:06.282Z,0.00
2019-04-07T00:47:06.316Z,0.00
2019-04-07T00:48:05.816Z,0.00
2019-04-07T00:49:05.623Z,0.00
2019-04-07T00:50:05.607Z,0.00
2019-04-07T00:51:05.626Z,0.00
2019-04-07T00:52:06.151Z,0.00
2019-04-07T00:53:05.724Z,0.00
2019-04-07T00:54:06.135Z,0.00
2019-04-07T00:55:05.652Z,0.00
2019-04-07T00:56:05.556Z,0.00
2019-04-07T00:57:05.602Z,0.00
2019-04-07T00:58:06.151Z,0.00
2019-04-07T00:59:05.579Z,0.00
2019-04-07T01:00:05.927Z,0.00
2019-04-07T01:01:05.496Z,0.00
2019-04-07T01:02:05.863Z,0.00
2019-04-07T01:03:05.664Z,0.00
2019-04-07T01:04:05.675Z,0.00
2019-04-07T01:05:06.017Z,0.00
2019-04-07T01:06:05.419Z,0.00
2019-04-07T01:07:05.469Z,0.00
2019-04-07T01:08:05.404Z,0.00
2019-04-07T01:09:05.444Z,0.00
2019-04-07T01:10:06.116Z,0.00
2019-04-07T01:11:05.653Z,0.00
2019-04-07T01:12:06.037Z,0.00
2019-04-07T01:13:05.439Z,0.00
2019-04-07T01:14:05.979Z,0.00
2019-04-07T01:15:05.392Z,0.00
2019-04-07T01:16:05.310Z,0.00
2019-04-07T01:17:05.343Z,0.00
2019-04-07T01:18:05.418Z,0.00
2019-04-07T01:19:05.744Z,0.00
2019-04-07T01:20:05.321Z,0.00
2019-04-07T01:21:05.330Z,0.00
2019-04-07T01:22:05.435Z,0.00
2019-04-07T01:23:05.461Z,0.00
2019-04-07T01:24:05.600Z,0.00
2019-04-07T01:25:05.250Z,0.00
2019-04-07T01:26:05.198Z,0.00
2019-04-07T01:27:05.268Z,0.00
2019-04-07T01:28:05.467Z,0.00
2019-04-07T01:29:05.570Z,0.00
2019-04-07T01:30:05.152Z,0.00
2019-04-07T01:31:05.560Z,0.00
2019-04-07T01:32:05.120Z,0.00
2019-04-07T01:33:05.417Z,0.00
2019-04-07T01:34:05.110Z,0.00
2019-04-07T01:35:05.752Z,0.00
2019-04-07T01:36:05.276Z,0.00
2019-04-07T01:37:05.589Z,0.00
2019-04-07T01:38:05.081Z,0.00
2019-04-07T01:39:05.148Z,0.00
2019-04-07T01:40:05.688Z,0.00
2019-04-07T01:41:05.028Z,0.00
2019-04-07T01:42:05.084Z,0.00
2019-04-07T01:43:05.331Z,0.00
2019-04-07T01:44:04.990Z,0.00
2019-04-07T01:45:05.169Z,0.00
2019-04-07T01:46:05.261Z,0.00
2019-04-07T01:47:05.634Z,0.00
2019-04-07T01:48:04.982Z,0.00
2019-04-07T01:49:05.014Z,0.00
2019-04-07T01:50:05.645Z,0.00
2019-04-07T01:51:05.648Z,0.00
2019-04-07T01:52:05.114Z,0.00
2019-04-07T01:53:04.984Z,0.00
2019-04-07T01:54:05.330Z,0.00
2019-04-07T01:55:04.959Z,0.00
2019-04-07T01:56:05.431Z,0.00
2019-04-07T01:57:05.712Z,0.00
2019-04-07T01:58:04.841Z,0.00
2019-04-07T01:59:04.885Z,0.00
2019-04-07T02:00:04.802Z,0.00
2019-04-07T02:01:05.427Z,0.00
2019-04-07T02:02:04.780Z,0.00
2019-04-07T02:03:04.971Z,0.00
2019-04-07T02:04:04.962Z,0.00
2019-04-07T02:05:05.549Z,0.00
2019-04-07T02:06:05.785Z,0.00
2019-04-07T02:07:05.099Z,0.00
2019-04-07T02:08:04.727Z,0.00
2019-04-07T02:09:04.744Z,0.00
2019-04-07T02:10:05.275Z,0.00
2019-04-07T02:11:05.099Z,0.00
2019-04-07T02:12:04.862Z,0.00
2019-04-07T02:13:05.959Z,0.00
2019-04-07T02:14:04.735Z,0.00
2019-04-07T02:15:04.689Z,0.00
2019-04-07T02:16:04.965Z,0.00
2019-04-07T02:17:05.411Z,0.00
2019-04-07T02:18:04.626Z,0.00
2019-04-07T02:19:05.103Z,0.00
2019-04-07T02:20:05.266Z,0.00
2019-04-07T02:21:05.328Z,0.00
2019-04-07T02:22:04.655Z,0.00
2019-04-07T02:23:05.189Z,0.00
2019-04-07T02:24:04.834Z,0.00
2019-04-07T02:25:04.552Z,0.00
2019-04-07T02:26:04.504Z,0.00
2019-04-07T02:27:05.216Z,0.00
2019-04-07T02:28:04.933Z,0.00
2019-04-07T02:29:04.979Z,0.00
2019-04-07T02:30:04.460Z,0.00
2019-04-07T02:31:04.493Z,0.00
2019-04-07T02:32:04.441Z,0.00
2019-04-07T02:33:04.547Z,0.00
2019-04-07T02:34:05.215Z,0.00
2019-04-07T02:35:04.425Z,0.00
2019-04-07T02:36:17.170Z,0.00
2019-04-07T02:37:06.538Z,0.00
2019-04-07T02:38:04.479Z,0.00
2019-04-07T02:39:04.589Z,0.00
2019-04-07T02:40:05.018Z,0.00
2019-04-07T02:41:04.398Z,0.00
2019-04-07T02:42:04.675Z,0.00
2019-04-07T02:43:05.202Z,0.00
2019-04-07T02:44:04.916Z,0.00
2019-04-07T02:45:04.281Z,0.00
2019-04-07T02:46:04.321Z,0.00
2019-04-07T02:47:04.284Z,0.00
2019-04-07T02:48:05.142Z,0.00
2019-04-07T02:49:04.260Z,0.00
2019-04-07T02:50:04.321Z,0.00
2019-04-07T02:51:04.221Z,0.00
2019-04-07T02:52:04.235Z,0.00
2019-04-07T02:53:04.193Z,0.00
2019-04-07T02:54:04.279Z,0.00
2019-04-07T02:55:04.536Z,0.00
2019-04-07T02:56:04.279Z,0.00
2019-04-07T02:57:04.156Z,0.00
2019-04-07T02:58:04.519Z,0.00
2019-04-07T02:59:04.659Z,0.00
2019-04-07T03:00:04.570Z,0.00
2019-04-07T03:01:04.181Z,0.00
2019-04-07T03:02:04.738Z,0.00
2019-04-07T03:03:04.805Z,0.00
2019-04-07T03:04:04.801Z,0.00
2019-04-07T03:05:04.976Z,0.00
2019-04-07T03:06:04.980Z,0.00
2019-04-07T03:07:04.828Z,0.00
2019-04-07T03:08:04.037Z,0.00
2019-04-07T03:09:04.027Z,0.00
2019-04-07T03:10:04.447Z,0.00
2019-04-07T03:11:03.996Z,0.00
2019-04-07T03:12:05.041Z,0.00
2019-04-07T03:13:05.835Z,0.00
2019-04-07T03:14:04.026Z,0.00
2019-04-07T03:15:03.948Z,0.00
2019-04-07T03:16:04.471Z,0.00
2019-04-07T03:17:04.178Z,0.00
2019-04-07T03:18:04.807Z,0.00
2019-04-07T03:19:04.491Z,0.00
2019-04-07T03:20:04.985Z,0.00
2019-04-07T03:21:03.916Z,0.00
2019-04-07T03:22:03.936Z,0.00
2019-04-07T03:23:03.865Z,0.00
2019-04-07T03:24:04.001Z,0.00
2019-04-07T03:25:03.885Z,0.00
2019-04-07T03:26:04.241Z,0.00
2019-04-07T03:27:04.044Z,0.00
2019-04-07T03:28:04.898Z,0.00
2019-04-07T03:29:03.801Z,0.00
2019-04-07T03:30:04.452Z,0.00
2019-04-07T03:31:04.250Z,0.00
2019-04-07T03:32:06.192Z,0.00
2019-04-07T03:33:06.613Z,0.00
2019-04-07T03:34:06.338Z,0.00
2019-04-07T03:35:05.397Z,0.00
2019-04-07T03:36:06.191Z,0.00
2019-04-07T03:37:21.673Z,0.00
2019-04-07T03:38:04.745Z,0.00
2019-04-07T03:39:03.665Z,0.00
2019-04-07T03:40:04.654Z,0.00
2019-04-07T03:41:03.645Z,0.00
2019-04-07T03:42:03.666Z,0.00
2019-04-07T03:43:03.631Z,0.00
2019-04-07T03:44:03.746Z,0.00
2019-04-07T03:45:04.319Z,0.00
2019-04-07T03:46:03.830Z,0.00
2019-04-07T03:47:03.581Z,0.00
2019-04-07T03:48:04.235Z,0.00
2019-04-07T03:49:03.998Z,0.00
2019-04-07T03:50:03.944Z,0.00
2019-04-07T03:51:03.531Z,0.00
2019-04-07T03:52:04.396Z,0.00
2019-04-07T03:53:03.506Z,0.00
2019-04-07T03:54:03.553Z,0.00
2019-04-07T03:55:04.663Z,0.00
2019-04-07T03:56:04.037Z,0.00
2019-04-07T03:57:03.469Z,0.00
2019-04-07T03:58:03.737Z,0.00
2019-04-07T03:59:03.592Z,0.00
2019-04-07T04:00:04.208Z,0.00
2019-04-07T04:01:03.751Z,0.00
2019-04-07T04:02:03.683Z,0.00
2019-04-07T04:03:03.395Z,0.00
2019-04-07T04:04:03.417Z,0.00
2019-04-07T04:05:03.390Z,0.00
2019-04-07T04:06:03.430Z,0.00
2019-04-07T04:07:19.139Z,0.00
2019-04-07T04:08:04.340Z,0.00
2019-04-07T04:09:03.348Z,0.00
2019-04-07T04:10:03.448Z,0.00
2019-04-07T04:11:04.211Z,0.00
2019-04-07T04:12:03.298Z,0.00
2019-04-07T04:13:03.389Z,0.00
2019-04-07T04:14:03.267Z,0.00
2019-04-07T04:15:03.636Z,0.00
2019-04-07T04:16:03.238Z,0.00
2019-04-07T04:17:04.236Z,0.00
2019-04-07T04:18:03.492Z,0.00
2019-04-07T04:19:04.989Z,0.00
2019-04-07T04:20:04.131Z,0.00
2019-04-07T04:21:03.602Z,0.00
2019-04-07T04:22:04.054Z,0.00
2019-04-07T04:23:03.951Z,0.00
2019-04-07T04:24:04.175Z,0.00
2019-04-07T04:25:03.260Z,0.00
2019-04-07T04:26:03.156Z,5.62
2019-04-07T04:27:03.171Z,5.62
2019-04-07T04:28:03.116Z,5.62
2019-04-07T04:29:04.023Z,5.62
2019-04-07T04:30:03.282Z,5.62
2019-04-07T04:31:03.297Z,5.62
2019-04-07T04:32:03.270Z,5.62
2019-04-07T04:33:03.915Z,5.62
2019-04-07T04:34:03.386Z,5.62
2019-04-07T04:35:03.382Z,11.25
2019-04-07T04:36:03.028Z,11.25
2019-04-07T04:37:03.942Z,11.25
2019-04-07T04:38:03.798Z,11.25
2019-04-07T04:39:03.054Z,11.25
2019-04-07T04:40:02.971Z,11.25
2019-04-07T04:41:03.079Z,16.88
2019-04-07T04:42:03.772Z,16.88
2019-04-07T04:43:02.991Z,16.88
2019-04-07T04:44:02.929Z,16.88
2019-04-07T04:45:04.066Z,16.88
2019-04-07T04:46:03.197Z,22.50
2019-04-07T04:47:02.906Z,22.50
2019-04-07T04:48:02.891Z,22.50
2019-04-07T04:49:02.923Z,22.50
2019-04-07T04:50:03.750Z,22.50
2019-04-07T04:51:03.414Z,28.12
2019-04-07T04:52:03.093Z,28.12
2019-04-07T04:53:02.845Z,28.12
2019-04-07T04:54:02.834Z,28.12
2019-04-07T04:55:03.611Z,33.75
2019-04-07T04:56:03.112Z,33.75
2019-04-07T04:57:06.398Z,33.75
2019-04-07T04:58:04.182Z,33.75
2019-04-07T04:59:02.782Z,39.38
2019-04-07T05:00:02.746Z,39.38
2019-04-07T05:01:03.072Z,39.38
2019-04-07T05:02:02.736Z,39.38
2019-04-07T05:03:02.863Z,45.00
2019-04-07T05:04:02.699Z,45.00
2019-04-07T05:05:02.755Z,45.00
2019-04-07T05:06:03.575Z,45.00
2019-04-07T05:07:03.404Z,50.62
2019-04-07T05:08:05.049Z,50.62
2019-04-07T05:09:04.510Z,50.62
2019-04-07T05:10:02.766Z,50.62
2019-04-07T05:11:03.139Z,56.25
2019-04-07T05:12:04.791Z,56.25
2019-04-07T05:13:02.693Z,56.25
2019-04-07T05:14:02.584Z,61.88
2019-04-07T05:15:02.593Z,61.88
2019-04-07T05:16:02.720Z,61.88
2019-04-07T05:17:02.648Z,61.88
2019-04-07T05:18:02.529Z,67.50
2019-04-07T05:19:02.717Z,67.50
2019-04-07T05:20:02.658Z,67.50
2019-04-07T05:21:03.112Z,67.50
2019-04-07T05:22:02.551Z,73.12
2019-04-07T05:23:02.663Z,73.12
2019-04-07T05:24:02.650Z,73.12
2019-04-07T05:25:02.563Z,78.75
2019-04-07T05:26:02.441Z,78.75
2019-04-07T05:27:03.143Z,78.75
2019-04-07T05:28:02.420Z,78.75
2019-04-07T05:29:02.633Z,84.38
2019-04-07T05:30:02.551Z,84.38
2019-04-07T05:31:02.502Z,84.38
2019-04-07T05:32:02.393Z,90.00
2019-04-07T05:33:02.452Z,90.00
2019-04-07T05:34:02.842Z,90.00
2019-04-07T05:35:02.459Z,90.00
2019-04-07T05:36:02.326Z,95.62
2019-04-07T05:37:02.374Z,95.62
2019-04-07T05:38:04.805Z,101.25
2019-04-07T05:39:02.353Z,106.88
2019-04-07T05:40:03.656Z,112.50
2019-04-07T05:41:02.994Z,123.75
2019-04-07T05:42:02.318Z,129.38
2019-04-07T05:43:02.278Z,140.62
2019-04-07T05:44:02.551Z,140.62
2019-04-07T05:45:02.309Z,151.88
2019-04-07T05:46:02.216Z,163.12
2019-04-07T05:47:02.851Z,168.75
2019-04-07T05:48:02.197Z,168.75
2019-04-07T05:49:02.220Z,168.75
2019-04-07T05:50:04.098Z,174.38
2019-04-07T05:51:02.366Z,174.38
2019-04-07T05:52:05.224Z,180.00
2019-04-07T05:53:02.244Z,180.00
2019-04-07T05:54:02.605Z,185.62
2019-04-07T05:55:03.178Z,185.62
2019-04-07T05:56:02.258Z,185.62
2019-04-07T05:57:02.565Z,196.88
2019-04-07T05:58:05.006Z,191.25
2019-04-07T05:59:02.741Z,196.88
2019-04-07T06:00:02.665Z,196.88
2019-04-07T06:01:02.762Z,202.50
2019-04-07T06:02:03.076Z,202.50
2019-04-07T06:03:06.593Z,202.50
2019-04-07T06:04:03.006Z,208.12
2019-04-07T06:05:02.023Z,208.12
2019-04-07T06:06:01.998Z,213.75
2019-04-07T06:07:02.042Z,213.75
2019-04-07T06:08:18.803Z,219.38
2019-04-07T06:09:03.053Z,219.38
2019-04-07T06:10:02.398Z,219.38
2019-04-07T06:11:02.455Z,225.00
2019-04-07T06:12:05.924Z,230.62
2019-04-07T06:13:03.110Z,230.62
2019-04-07T06:14:01.934Z,241.88
2019-04-07T06:15:02.006Z,241.88
2019-04-07T06:16:02.080Z,247.50
2019-04-07T06:17:02.145Z,253.12
2019-04-07T06:18:02.566Z,264.38
2019-04-07T06:19:05.412Z,270.00
2019-04-07T06:20:03.624Z,275.62
2019-04-07T06:21:01.830Z,281.25
2019-04-07T06:22:02.333Z,281.25
2019-04-07T06:23:02.074Z,286.88
2019-04-07T06:24:02.478Z,315.00
2019-04-07T06:25:04.037Z,382.50
2019-04-07T06:26:01.759Z,478.12
2019-04-07T06:27:01.771Z,585.00
2019-04-07T06:28:02.224Z,658.12
2019-04-07T06:29:01.800Z,686.25
2019-04-07T06:30:02.426Z,663.75
2019-04-07T06:31:02.060Z,669.38
2019-04-07T06:32:03.608Z,691.88
2019-04-07T06:33:01.748Z,720.00
2019-04-07T06:34:01.666Z,720.00
2019-04-07T06:35:01.944Z,703.12
2019-04-07T06:36:01.662Z,680.62
2019-04-07T06:37:02.417Z,675.00
2019-04-07T06:38:05.304Z,669.38
2019-04-07T06:39:02.697Z,697.50
2019-04-07T06:40:01.604Z,725.62
2019-04-07T06:41:02.967Z,759.38
2019-04-07T06:42:02.534Z,691.88
2019-04-07T06:43:04.591Z,585.00
2019-04-07T06:44:10.089Z,506.25
2019-04-07T06:45:02.539Z,444.38
2019-04-07T06:46:01.764Z,416.25
2019-04-07T06:47:03.869Z,405.00
2019-04-07T06:48:07.017Z,399.38
2019-04-07T06:49:02.683Z,393.75
2019-04-07T06:50:01.892Z,388.12
2019-04-07T06:51:01.779Z,388.12
2019-04-07T06:52:04.135Z,382.50
2019-04-07T06:53:01.539Z,376.88
2019-04-07T06:54:02.281Z,371.25
2019-04-07T06:55:01.429Z,365.62
2019-04-07T06:56:03.061Z,371.25
2019-04-07T06:57:05.018Z,376.88
2019-04-07T06:58:02.100Z,376.88
2019-04-07T06:59:01.406Z,376.88
2019-04-07T07:00:02.331Z,393.75
2019-04-07T07:01:02.547Z,444.38
2019-04-07T07:02:02.184Z,579.38
2019-04-07T07:03:04.084Z,720.00
2019-04-07T07:04:01.823Z,832.50
2019-04-07T07:05:01.320Z,877.50
2019-04-07T07:06:01.389Z,928.12
2019-04-07T07:07:01.290Z,950.62
2019-04-07T07:08:01.971Z,973.12
2019-04-07T07:09:02.016Z,1006.88
2019-04-07T07:10:02.119Z,1029.38
2019-04-07T07:11:01.926Z,1063.12
2019-04-07T07:12:01.657Z,1063.12
2019-04-07T07:13:05.104Z,1018.12
2019-04-07T07:14:02.354Z,1046.25
2019-04-07T07:15:03.121Z,1068.75
2019-04-07T07:16:01.579Z,1046.25
2019-04-07T07:17:01.827Z,1063.12
2019-04-07T07:18:01.211Z,1130.62
2019-04-07T07:19:02.170Z,1158.75
2019-04-07T07:20:03.617Z,1181.25
2019-04-07T07:21:03.669Z,1209.38
2019-04-07T07:22:01.246Z,1215.00
2019-04-07T07:23:01.120Z,1226.25
2019-04-07T07:24:01.264Z,1203.75
2019-04-07T07:25:01.351Z,1203.75
2019-04-07T07:26:03.097Z,1237.50
2019-04-07T07:27:04.385Z,1254.38
2019-04-07T07:28:01.670Z,1265.62
2019-04-07T07:29:01.049Z,1276.88
2019-04-07T07:30:01.294Z,1282.50
2019-04-07T07:31:01.028Z,1265.62
2019-04-07T07:32:03.806Z,1271.25
2019-04-07T07:33:01.021Z,1316.25
2019-04-07T07:34:01.020Z,1366.88
2019-04-07T07:35:01.009Z,1361.25
2019-04-07T07:36:01.314Z,1344.38
2019-04-07T07:37:00.967Z,1366.88
2019-04-07T07:38:01.050Z,1366.88
2019-04-07T07:39:02.998Z,1378.12
2019-04-07T07:40:01.043Z,1389.38
2019-04-07T07:41:02.352Z,1400.62
2019-04-07T07:42:01.732Z,1423.12
2019-04-07T07:43:00.900Z,1395.00
2019-04-07T07:44:03.606Z,1395.00
2019-04-07T07:45:01.593Z,1395.00
2019-04-07T07:46:00.902Z,1361.25
2019-04-07T07:47:01.492Z,1355.62
2019-04-07T07:48:01.008Z,1440.00
2019-04-07T07:49:02.100Z,1490.62
2019-04-07T07:50:04.878Z,1501.88
2019-04-07T07:51:01.241Z,1501.88
2019-04-07T07:52:01.466Z,1496.25
2019-04-07T07:53:01.397Z,1451.25
2019-04-07T07:54:02.009Z,1490.62
2019-04-07T07:55:02.747Z,1569.38
2019-04-07T07:56:01.001Z,1591.88
2019-04-07T07:57:01.333Z,1575.00
2019-04-07T07:58:01.057Z,1563.75
2019-04-07T07:59:01.783Z,1535.62
2019-04-07T08:00:04.563Z,1580.62
2019-04-07T08:01:01.706Z,1586.25
2019-04-07T08:02:01.351Z,1670.62
2019-04-07T08:03:00.764Z,1726.88
2019-04-07T08:04:00.837Z,1698.75
2019-04-07T08:05:00.707Z,1648.12
2019-04-07T08:06:04.686Z,1648.12
2019-04-07T08:07:02.612Z,1681.88
2019-04-07T08:08:00.660Z,1693.12
2019-04-07T08:09:09.931Z,1665.00
2019-04-07T08:10:01.639Z,1659.38
2019-04-07T08:11:02.645Z,1698.75
2019-04-07T08:12:02.453Z,1794.38
2019-04-07T08:13:02.660Z,1805.62
2019-04-07T08:14:02.255Z,1771.88
2019-04-07T08:15:01.789Z,1771.88
2019-04-07T08:16:00.574Z,1777.50
2019-04-07T08:17:03.341Z,1771.88
2019-04-07T08:18:03.379Z,1743.75
2019-04-07T08:19:01.561Z,1766.25
2019-04-07T08:20:01.066Z,1822.50
2019-04-07T08:21:00.575Z,1805.62
2019-04-07T08:22:00.634Z,1811.25
2019-04-07T08:23:00.736Z,1811.25
2019-04-07T08:24:00.446Z,1805.62
2019-04-07T08:25:02.443Z,1653.75
2019-04-07T08:26:00.506Z,1642.50
2019-04-07T08:27:00.486Z,1788.75
2019-04-07T08:28:03.717Z,1878.75
2019-04-07T08:29:01.215Z,1929.38
2019-04-07T08:30:00.384Z,1822.50
2019-04-07T08:31:00.828Z,1800.00
2019-04-07T08:32:00.355Z,1935.00
2019-04-07T08:33:01.394Z,1974.38
2019-04-07T08:34:01.326Z,1996.88
2019-04-07T08:35:03.783Z,2064.38
2019-04-07T08:36:00.418Z,1963.12
2019-04-07T08:37:00.875Z,1935.00
2019-04-07T08:38:00.970Z,1968.75
2019-04-07T08:39:00.635Z,2030.62
2019-04-07T08:40:04.277Z,2002.50
2019-04-07T08:41:01.968Z,1957.50
2019-04-07T08:42:01.163Z,1935.00
2019-04-07T08:43:00.483Z,2013.75
2019-04-07T08:44:00.248Z,2047.50
2019-04-07T08:45:00.669Z,2041.88
2019-04-07T08:46:02.282Z,2103.75
2019-04-07T08:47:00.335Z,2086.88
2019-04-07T08:48:00.757Z,2081.25
2019-04-07T08:49:00.247Z,2126.25
2019-04-07T08:50:00.174Z,2092.50
2019-04-07T08:51:01.025Z,2025.00
2019-04-07T08:52:04.032Z,2008.12
2019-04-07T08:53:02.047Z,2041.88
2019-04-07T08:54:00.234Z,2092.50
2019-04-07T08:55:00.205Z,2160.00
2019-04-07T08:56:00.103Z,2205.00
2019-04-07T08:57:00.284Z,2238.75
2019-04-07T08:58:02.496Z,2311.88
2019-04-07T08:59:00.088Z,2160.00
2019-04-07T09:00:00.055Z,2115.00
2019-04-07T09:01:00.227Z,2064.38
2019-04-07T09:02:00.068Z,2030.62
2019-04-07T09:03:09.717Z,2098.12
2019-04-07T09:04:01.267Z,2188.12
2019-04-07T09:05:00.252Z,2272.50
2019-04-07T09:05:59.991Z,2261.25
2019-04-07T09:07:02.909Z,2289.38
2019-04-07T09:08:03.530Z,2143.12
2019-04-07T09:09:01.503Z,2115.00
2019-04-07T09:09:59.988Z,2193.75
2019-04-07T09:10:59.970Z,2210.62
2019-04-07T09:12:00.427Z,2188.12
2019-04-07T09:13:03.047Z,2182.50
2019-04-07T09:14:00.224Z,2193.75
2019-04-07T09:15:03.147Z,2250.00
2019-04-07T09:16:00.884Z,2278.12
2019-04-07T09:16:59.946Z,2306.25
2019-04-07T09:17:59.871Z,2278.12
2019-04-07T09:19:04.392Z,2250.00
2019-04-07T09:20:00.855Z,2250.00
2019-04-07T09:21:00.744Z,2250.00
2019-04-07T09:22:00.621Z,2266.88
2019-04-07T09:23:00.564Z,2278.12
2019-04-07T09:24:00.296Z,2233.12
2019-04-07T09:25:03.441Z,2283.75
2019-04-07T09:26:01.512Z,2328.75
2019-04-07T09:26:59.776Z,2283.75
2019-04-07T09:27:59.769Z,2278.12
2019-04-07T09:28:59.793Z,2120.62
2019-04-07T09:29:59.947Z,1996.88
2019-04-07T09:31:02.141Z,2278.12
2019-04-07T09:31:59.720Z,2424.38
2019-04-07T09:32:59.751Z,2373.75
2019-04-07T09:33:59.872Z,2334.38
2019-04-07T09:34:59.737Z,2362.50
2019-04-07T09:36:00.617Z,2311.88
2019-04-07T09:37:00.246Z,2356.88
2019-04-07T09:38:00.339Z,2407.50
2019-04-07T09:39:02.629Z,2373.75
2019-04-07T09:40:02.055Z,2401.88
2019-04-07T09:41:00.498Z,2362.50
2019-04-07T09:41:59.628Z,2238.75
2019-04-07T09:43:01.108Z,2278.12
2019-04-07T09:44:01.518Z,2300.62
2019-04-07T09:45:00.630Z,2385.00
2019-04-07T09:45:59.590Z,2469.38
2019-04-07T09:46:59.643Z,2531.25
2019-04-07T09:47:59.977Z,2520.00
2019-04-07T09:48:59.983Z,2430.00
2019-04-07T09:50:00.404Z,2407.50
2019-04-07T09:51:06.405Z,2407.50
2019-04-07T09:52:01.014Z,2396.25
2019-04-07T09:52:59.550Z,2446.88
2019-04-07T09:54:00.322Z,2441.25
2019-04-07T09:54:59.572Z,2497.50
2019-04-07T09:55:59.486Z,2553.75
2019-04-07T09:57:03.421Z,2520.00
2019-04-07T09:58:01.243Z,2497.50
2019-04-07T09:59:00.294Z,2497.50
2019-04-07T09:59:59.478Z,2396.25
2019-04-07T10:00:59.717Z,2368.12
2019-04-07T10:02:01.168Z,2311.88
2019-04-07T10:03:00.253Z,2385.00
2019-04-07T10:03:59.411Z,2452.50
2019-04-07T10:04:59.429Z,2632.50
2019-04-07T10:05:59.383Z,2660.62
2019-04-07T10:06:59.455Z,2593.12
2019-04-07T10:07:59.342Z,2531.25
2019-04-07T10:09:00.034Z,2390.62
2019-04-07T10:10:10.063Z,2323.12
2019-04-07T10:11:00.656Z,2446.88
2019-04-07T10:11:59.378Z,2424.38
2019-04-07T10:12:59.757Z,2452.50
2019-04-07T10:13:59.353Z,2632.50
2019-04-07T10:14:59.754Z,2677.50
2019-04-07T10:15:59.885Z,2610.00
2019-04-07T10:16:59.521Z,2643.75
2019-04-07T10:17:59.793Z,2632.50
2019-04-07T10:18:59.249Z,2638.12
2019-04-07T10:19:59.904Z,2632.50
2019-04-07T10:20:59.924Z,2632.50
2019-04-07T10:22:01.471Z,2581.88
2019-04-07T10:22:59.185Z,2553.75
2019-04-07T10:23:59.367Z,2553.75
2019-04-07T10:24:59.182Z,2587.50
2019-04-07T10:25:59.174Z,2531.25
2019-04-07T10:26:59.157Z,2520.00
2019-04-07T10:27:59.188Z,2542.50
2019-04-07T10:28:59.515Z,2565.00
2019-04-07T10:29:59.289Z,2520.00
2019-04-07T10:30:59.774Z,2373.75
2019-04-07T10:31:59.278Z,2503.12
2019-04-07T10:33:00.079Z,2553.75
2019-04-07T10:33:59.103Z,2553.75
2019-04-07T10:34:59.292Z,2565.00
2019-04-07T10:35:59.076Z,2581.88
2019-04-07T10:37:01.561Z,2615.62
2019-04-07T10:37:59.058Z,2581.88
2019-04-07T10:38:59.044Z,2565.00
2019-04-07T10:40:00.378Z,2553.75
2019-04-07T10:40:59.471Z,2581.88
2019-04-07T10:41:59.087Z,2576.25
2019-04-07T10:42:59.774Z,2525.62
2019-04-07T10:43:59.084Z,2458.12
2019-04-07T10:44:58.945Z,2536.88
2019-04-07T10:45:59.037Z,2531.25
2019-04-07T10:46:59.275Z,2536.88
2019-04-07T10:47:59.025Z,2593.12
2019-04-07T10:48:59.154Z,2480.62
2019-04-07T10:50:05.178Z,2491.88
2019-04-07T10:51:00.215Z,2446.88
2019-04-07T10:51:59.326Z,2508.75
2019-04-07T10:52:58.885Z,2497.50
2019-04-07T10:53:58.957Z,2446.88
2019-04-07T10:54:59.446Z,2520.00
2019-04-07T10:55:58.903Z,2503.12
2019-04-07T10:56:58.822Z,2514.38
2019-04-07T10:57:59.744Z,2480.62
2019-04-07T10:58:59.396Z,2463.75
2019-04-07T10:59:58.906Z,2520.00
2019-04-07T11:00:59.692Z,2385.00
2019-04-07T11:01:58.779Z,2154.38
2019-04-07T11:02:58.757Z,2295.00
2019-04-07T11:03:59.422Z,2430.00
2019-04-07T11:04:58.805Z,2435.62
2019-04-07T11:05:59.350Z,2446.88
2019-04-07T11:06:58.719Z,2514.38
2019-04-07T11:07:58.802Z,2469.38
2019-04-07T11:08:59.015Z,2390.62
2019-04-07T11:09:59.033Z,2385.00
2019-04-07T11:10:58.704Z,2379.38
2019-04-07T11:11:58.919Z,2295.00
2019-04-07T11:12:58.659Z,2317.50
2019-04-07T11:13:58.802Z,2373.75
2019-04-07T11:14:59.047Z,2238.75
2019-04-07T11:15:59.149Z,2255.62
2019-04-07T11:17:00.243Z,2328.75
2019-04-07T11:17:59.263Z,2289.38
2019-04-07T11:18:58.667Z,2261.25
2019-04-07T11:19:59.083Z,2109.38
2019-04-07T11:20:58.711Z,2126.25
2019-04-07T11:21:58.654Z,2120.62
2019-04-07T11:22:58.549Z,2182.50
2019-04-07T11:23:58.947Z,2081.25
2019-04-07T11:24:59.171Z,2098.12
2019-04-07T11:25:59.413Z,2137.50
2019-04-07T11:26:59.322Z,2109.38
2019-04-07T11:27:59.417Z,2154.38
2019-04-07T11:28:59.385Z,2126.25
2019-04-07T11:29:58.569Z,1968.75
2019-04-07T11:30:58.546Z,1704.38
2019-04-07T11:31:59.238Z,826.88
2019-04-07T11:32:58.897Z,421.88
2019-04-07T11:33:58.863Z,405.00
2019-04-07T11:34:58.503Z,393.75
2019-04-07T11:35:58.556Z,388.12
2019-04-07T11:36:58.413Z,382.50
2019-04-07T11:37:58.483Z,376.88
2019-04-07T11:38:58.596Z,365.62
2019-04-07T11:39:59.497Z,360.00
2019-04-07T11:40:58.401Z,360.00
2019-04-07T11:41:59.023Z,348.75
2019-04-07T11:42:58.973Z,348.75
2019-04-07T11:43:59.237Z,343.12
2019-04-07T11:44:58.610Z,343.12
2019-04-07T11:46:02.485Z,337.50
2019-04-07T11:46:58.311Z,331.88
2019-04-07T11:47:59.090Z,337.50
2019-04-07T11:48:59.090Z,337.50
2019-04-07T11:49:58.287Z,331.88
2019-04-07T11:50:58.783Z,326.25
2019-04-07T11:51:58.282Z,320.62
2019-04-07T11:52:58.233Z,315.00
2019-04-07T11:53:58.842Z,315.00
2019-04-07T11:54:58.206Z,309.38
2019-04-07T11:55:58.211Z,303.75
2019-04-07T11:56:58.963Z,298.12
2019-04-07T11:58:09.512Z,298.12
2019-04-07T11:58:59.164Z,292.50
2019-04-07T11:59:58.162Z,303.75
2019-04-07T12:00:58.221Z,298.12
2019-04-07T12:01:58.631Z,298.12
2019-04-07T12:02:58.123Z,292.50
2019-04-07T12:03:59.013Z,292.50
2019-04-07T12:04:58.914Z,292.50
2019-04-07T12:05:58.147Z,292.50
2019-04-07T12:06:58.142Z,292.50
2019-04-07T12:07:58.757Z,286.88
2019-04-07T12:08:58.923Z,286.88
2019-04-07T12:09:58.476Z,286.88
2019-04-07T12:11:02.171Z,286.88
2019-04-07T12:11:59.287Z,281.25
2019-04-07T12:12:58.010Z,281.25
2019-04-07T12:13:58.681Z,275.62
2019-04-07T12:14:58.809Z,275.62
2019-04-07T12:15:58.119Z,275.62
2019-04-07T12:17:00.182Z,275.62
2019-04-07T12:17:58.086Z,270.00
2019-04-07T12:18:57.981Z,264.38
2019-04-07T12:19:58.215Z,264.38
2019-04-07T12:21:00.948Z,258.75
2019-04-07T12:21:58.946Z,258.75
2019-04-07T12:22:58.263Z,253.12
2019-04-07T12:23:58.322Z,253.12
2019-04-07T12:25:00.804Z,247.50
2019-04-07T12:25:57.878Z,247.50
2019-04-07T12:27:00.680Z,247.50
2019-04-07T12:27:58.109Z,241.88
2019-04-07T12:28:58.089Z,241.88
2019-04-07T12:29:58.166Z,241.88
2019-04-07T12:30:57.814Z,241.88
2019-04-07T12:31:57.864Z,241.88
2019-04-07T12:32:58.431Z,241.88
2019-04-07T12:33:58.504Z,241.88
2019-04-07T12:34:57.772Z,241.88
2019-04-07T12:35:58.486Z,241.88
2019-04-07T12:37:02.413Z,241.88
2019-04-07T12:37:59.544Z,241.88
2019-04-07T12:38:58.488Z,241.88